Portada
METAR-TAF:

METAR-TAF

Aeroports :

Mécheria, Algèria

latitud: 34-56N, longitud: 000-26W, altitud: 1149 m

Observació

L'informe es va fer fa 18 minuts, a les 05:00 UTC
Vent 8 kt del Sud
Temperatura 5°C
Humitat 87%
Pressió 1018 hPa
Visibilitat: 8000 m
Núvols disperses a una alçada de 2000 ft
Núvols disperses a una alçada de 3000 ft

METAR: DAAY 290500Z 19008KT 8000 SCT020 SCT030 05/03 Q1018

Hora: 06:18 (05:18 UTC)

Pronòstic

L'informe es va fer fa 3 hores i 18 minuts, a les 02:00 UTC
Pronòstic vàlid del 29 a les 03 UTC al 29 a les 12 UTC
Vent 8 kt del Sud
Visibilitat: 8000 m
Núvols disperses a una alçada de 2600 ft
Núvols disperses a una alçada de 3300 ft

TAF: DAAY 290200Z 2903/2912 18008KT 8000 SCT026 SCT033

Observacions i pronòstics meteorològics de més de 4000 aeroports (METAR i TAF).

Les estacions disponibles són els punts grocs i vermells al mapa.

Posi el ratolí al punt desitjat per veure el nom de l'estació.

Feu clic per veure les observacions i els pronòstics meteorològics.

Per canviar el mapa: feu clic els botons verds amb una creu de color negre per apropar; al botó verd amb un guió per allunyar la imatge; o en les fletxes verdes per a mapes adjacents.


METAR-TAF: